Terminal Aerodrome Forecast
Issued by NWS Newport/Morehead City, NC

Home | Current Version | Previous Version | Text Only | Print | Product List | Glossary Off
Versions: 1 2 3 4 5 6 7 8 9 10 11

000
FTUS42 KMHX 221723
TAFEWN
TAF
KEWN 221723Z 2218/2318 24012G23KT P6SM SKC
     FM230000 24008KT P6SM SCT100
     FM231000 33008KT P6SM SCT050=

USA.gov is the U.S. government's official web portal to all federal, state and local government web resources and services.